Wednesday, June 01, 2016
05:28 UTC
  |  Log In   |  Register Free
Airport Search:

Akron-Canton Regional Airport
(KCAK)

FAA data valid effective May 26 2016 - Jul 21 2016 (unless otherwise noted).

 
 
 
 
 
 
 
 
 
 
 
 
 
 
Current Aviation Weather for KCAK

Weather Summary


The most recent METAR observation for CAK was updated at: 12:51 UTC
METAR for KCAK is not available. Closest METAR is for KAKR
KCAK  (most recent observation was updatred at 10:45 UTC)
010451Z 05005KT 10SM SCT220 18/09 A3004 RMK AO2 SLP165 T01780094 403000156

KAKR  (7.4 nm SE)   (most recent observation was updated at 10:45 UTC)
010454Z AUTO 10SM CLR 18/10 A3004 RMK AO2 SLP165 T01830100 403170161 $

KPOV  (19.7 nm SW)   (most recent observation was updated at 10:51 UTC)
010519Z AUTO 05004KT 10SM CLR 16/08 A3005 RMK AO2 T01620081

TAF for KCAK is not available.
KCAK
312322Z 0100/0124 02010G18KT P6SM BKN250 FM010200 04005KT P6SM SCT250 FM011500 16006KT P6SM SCT050

KCLE  (35.0 nm SE)   (most recent observation was updatred at 10:33 UTC)
AMD 010337Z 0104/0206 04008KT P6SM SCT250 FM011500 10008KT P6SM BKN250
GlobalAir.com is loading additional information.
 Current Weather at CAK
65.0 F° (18.3 C°)

Northeast winds at 10.4 mph
Pressure:
30.04 in
Humidity:
56%
Wind:
Northeast at 10.4 mph
Dew Point:
48.9 F° (9.4 C°)
Visibility:
10.00 mi
CAK NOAA Radar




Find All Airport Services Find A Hotel Find A Rental Car Find A Golf Course Find A Restaurant $100 Hamburger



Airport Weather Forecast for KCAK

Translated METAR for KCAK (0451 UTC)
METAR:
KCAK 010451Z 05005KT 10SM SCT220 18/09 A3004 RMK AO2 SLP165 T01780094 403000156
Conditions at:
KCAK (Akron-Canton Rgnl, OH) observed 0451 UTC 01 June 2016
Temperature:
18°C (64.4°F)
Dewpoint:
9°C (48.2°F) [RH = 55.7]
Pressure:
30.04 inches Hg (1017.3 mb)
pressure at sea level is 165 in Hg
Winds:
from the NE (050 degrees) at 5.8 mph (5 knots: 2.6 m/s)
Visibility:
10 mile(s)
Ceiling:
at least 12,000 feet AGL
Clouds:
Scattered Clouds at 22,000 feet AGL
Remarks:
site is automated and HAS a precipitation sensor

Translated TAF for KCAK (Akron-Canton Rgnl, OH) (2322 UTC)
TAF text:
KCAK 312322Z 0100/0124 02010G18KT P6SM BKN250
Forecast period:
Wednesday Jun 01 2016 00:00 UTC - Wednesday Jun 01 2016 24:00 UTC
Forecast type:
FROM: standard forecast or significant change
Winds:
from the NNE (020 degrees) at 11.5 mph (10 knots: 5.1 m/s)
gusting to 20.7 mph (18 knots: 9.3 m/s)
Visibility:
6 or more mile(s) (9.7+ km)
Ceiling:
25,000 feet AGL
Clouds:
Broken Cloud Cover at 25,000 feet AGL
Weather:
no significant weather observed at this time
TAF text:
FM010200 04005KT P6SM SCT250
Forecast period:
Wednesday Jun 01 2016 02:00 UTC - Wednesday Jun 01 2016 15:00 UTC
Forecast type:
FROM: standard forecast or significant change
Winds:
from the NE (040 degrees) at 5.8 mph (5 knots: 2.6 m/s)
Visibility:
6 or more mile(s) (9.7+ km)
Ceiling:
at least 12,000 feet AGL
Clouds:
Scattered Clouds at 25,000 feet AGL
Weather:
no significant weather observed at this time
TAF text:
FM011500 16006KT P6SM SCT050
Forecast period:
Wednesday Jun 01 2016 15:00 UTC - Wednesday Jun 01 2016 24:00 UTC
Forecast type:
FROM: standard forecast or significant change
Winds:
from the SSE (160 degrees) at 6.9 mph (6 knots: 3.1 m/s)
Visibility:
6 or more mile(s) (9.7+ km)
Ceiling:
at least 12,000 feet AGL
Clouds:
Scattered Clouds at 5,000 feet AGL
Weather:
no significant weather observed at this time
FBO's on the Field
FBO Company Facility Photos Services Transportation Aviation Fuel Prices: Prices include tax
Catering Weather Repair Courtesy Rental Type 100LL JetA JetA+ MOGAS 8087
 
Avflight Akron-Canton

Currently rated 4.8 by 1 person
FS:Avfuel
Last Updated: May-31
Login to update fuel prices
SS:
Contact Avflight Akron-CantonMore FBO Information
 
McKinley Air, Inc.

Currently rated 4.8 by 8 people
FS:Phillips 66
Last Updated: May-24
Login to update fuel prices
SS:
Contact McKinley Air, Inc.More FBO Information
 
Add another FBO Facility Photos Catering Weather Repair Courtesy Rental Type 100LL JetA JetA+ MOGAS 8087
Services Transportation Aviation Fuel Prices: Prices include tax


model-print
model-print
model-print
model-print